Time;durP1;ratioP1;P1;durP2;ratioP2;P2;SDS_P1;SDS_P2;PMS_P1;PMS_P2;Temp;Humidity;BMP_temperature;BMP_pressure;BME280_temperature;BME280_humidity;BME280_pressure;Samples;Min_cycle;Max_cycle;Signal;HPM_P1;HPM_P2
2023/05/06 00:01:27;;;;;;;43.27;22.87;;;;;;;;;;5032738;28;20381;-66
2023/05/06 00:03:52;;;;;;;53.73;24.60;;;;;;;;;;5035071;28;20513;-65
2023/05/06 00:06:17;;;;;;;69.77;26.93;;;;;;;;;;5022791;28;20030;-66
2023/05/06 00:08:44;;;;;;;62.73;28.00;;;;;;;;;;5024478;28;20105;-65
2023/05/06 00:11:10;;;;;;;65.30;27.37;;;;;;;;;;5034293;28;20387;-66
2023/05/06 00:13:36;;;;;;;67.03;27.80;;;;;;;;;;5033507;28;20031;-66
2023/05/06 00:16:02;;;;;;;69.27;28.70;;;;;;;;;;5015005;28;20046;-65
2023/05/06 00:18:27;;;;;;;76.33;30.53;;;;;;;;;;5014776;28;20044;-65
2023/05/06 00:20:52;;;;;;;86.90;31.47;;;;;;;;;;5022939;28;20033;-66
2023/05/06 00:23:18;;;;;;;92.80;33.30;;;;;;;;;;5028654;28;20030;-66
2023/05/06 00:25:43;;;;;;;86.83;31.20;;;;;;;;;;5033509;28;20393;-65
2023/05/06 00:28:08;;;;;;;106.43;34.47;;;;;;;;;;5020278;28;20029;-66
2023/05/06 00:30:34;;;;;;;103.80;35.60;;;;;;;;;;5030352;28;20060;-66
2023/05/06 00:32:59;;;;;;;102.97;34.53;;;;;;;;;;5032865;28;20033;-66
2023/05/06 00:35:25;;;;;;;95.50;33.33;;;;;;;;;;5032372;28;20029;-67
2023/05/06 00:37:55;;;;;;;97.23;34.77;;;;;;;;;;5034659;28;20033;-66
2023/05/06 00:40:20;;;;;;;104.37;34.60;;;;;;;;;;5033093;28;20037;-66
2023/05/06 00:42:46;;;;;;;105.00;35.43;;;;;;;;;;5031931;28;20030;-66
2023/05/06 00:45:11;;;;;;;100.60;34.63;;;;;;;;;;5032380;28;20025;-66
2023/05/06 00:47:36;;;;;;;103.37;37.27;;;;;;;;;;5033440;28;20492;-66
2023/05/06 00:50:02;;;;;;;118.67;38.13;;;;;;;;;;5033255;28;20033;-67
2023/05/06 00:52:27;;;;;;;120.97;40.40;;;;;;;;;;5031973;28;20029;-66
2023/05/06 00:54:52;;;;;;;113.87;39.87;;;;;;;;;;5017181;28;20111;-66
2023/05/06 00:57:18;;;;;;;106.17;38.40;;;;;;;;;;5031322;28;20675;-66
2023/05/06 00:59:43;;;;;;;116.47;39.17;;;;;;;;;;5030345;28;20052;-67
2023/05/06 01:02:08;;;;;;;109.03;38.73;;;;;;;;;;5030971;28;20466;-66
2023/05/06 01:04:34;;;;;;;117.10;40.87;;;;;;;;;;5054482;22;20050;-64
2023/05/06 01:07:11;;;;;;;119.57;39.80;;;;;;;;;;5051903;28;20379;-63
2023/05/06 01:09:59;;;;;;;127.40;41.60;;;;;;;;;;5052174;28;20391;-64
2023/05/06 01:12:36;;;;;;;124.20;40.60;;;;;;;;;;5051508;28;20033;-64
2023/05/06 01:15:10;;;;;;;158.47;43.87;;;;;;;;;;5051215;28;20025;-64
2023/05/06 01:17:45;;;;;;;143.23;43.63;;;;;;;;;;5033625;28;20053;-64
2023/05/06 01:20:11;;;;;;;139.07;44.10;;;;;;;;;;5044640;28;20033;-64
2023/05/06 01:22:36;;;;;;;138.33;43.73;;;;;;;;;;5052471;28;20530;-64
2023/05/06 01:25:02;;;;;;;157.57;46.87;;;;;;;;;;5051270;28;20013;-65
2023/05/06 01:27:27;;;;;;;192.97;48.23;;;;;;;;;;5051562;28;20477;-64
2023/05/06 01:29:52;;;;;;;162.70;47.73;;;;;;;;;;5051690;28;20025;-64
2023/05/06 01:32:38;;;;;;;173.17;49.37;;;;;;;;;;5048507;28;20025;-64
2023/05/06 01:35:18;;;;;;;167.07;48.50;;;;;;;;;;5027696;28;20028;-64
2023/05/06 01:37:46;;;;;;;175.00;48.67;;;;;;;;;;5051777;28;20025;-64
2023/05/06 01:40:13;;;;;;;176.20;50.90;;;;;;;;;;5034483;28;20048;-64
2023/05/06 01:42:39;;;;;;;251.93;50.83;;;;;;;;;;5051872;28;20032;-64
2023/05/06 01:45:05;;;;;;;202.00;52.30;;;;;;;;;;5051136;28;20021;-64
2023/05/06 01:47:31;;;;;;;190.60;51.10;;;;;;;;;;5046930;28;20096;-64
2023/05/06 01:49:57;;;;;;;165.20;49.47;;;;;;;;;;5051968;28;20082;-64
2023/05/06 01:52:22;;;;;;;162.67;49.60;;;;;;;;;;5052367;28;20028;-64
2023/05/06 01:54:47;;;;;;;172.97;52.37;;;;;;;;;;5051479;28;20028;-64
2023/05/06 01:57:13;;;;;;;190.27;54.67;;;;;;;;;;5052486;28;20094;-64
2023/05/06 01:59:38;;;;;;;194.13;55.63;;;;;;;;;;5050814;28;20025;-64
2023/05/06 02:02:03;;;;;;;193.60;55.40;;;;;;;;;;5051037;28;20028;-64
2023/05/06 02:04:29;;;;;;;196.50;56.27;;;;;;;;;;5051240;28;20558;-64
2023/05/06 02:06:54;;;;;;;176.20;54.60;;;;;;;;;;5052882;28;20079;-63
2023/05/06 02:09:19;;;;;;;164.13;52.70;;;;;;;;;;5050875;28;20075;-63
2023/05/06 02:11:45;;;;;;;172.20;54.33;;;;;;;;;;5052627;28;20412;-63
2023/05/06 02:14:10;;;;;;;159.60;51.60;;;;;;;;;;5052342;28;20025;-63
2023/05/06 02:16:35;;;;;;;166.53;51.13;;;;;;;;;;5050635;28;20032;-62
2023/05/06 02:19:01;;;;;;;183.63;53.77;;;;;;;;;;5051353;28;20529;-62
2023/05/06 02:21:27;;;;;;;188.80;55.77;;;;;;;;;;5051647;28;20107;-63
2023/05/06 02:23:52;;;;;;;212.77;60.23;;;;;;;;;;5051358;28;20024;-62
2023/05/06 02:26:17;;;;;;;225.03;60.00;;;;;;;;;;5051367;28;20024;-63
2023/05/06 02:28:42;;;;;;;187.63;56.67;;;;;;;;;;5051182;28;20025;-63
2023/05/06 02:31:11;;;;;;;187.27;58.13;;;;;;;;;;5049810;28;20416;-63
2023/05/06 02:33:36;;;;;;;193.80;59.70;;;;;;;;;;5051957;28;20024;-63
2023/05/06 02:36:02;;;;;;;180.60;56.43;;;;;;;;;;5051308;28;20032;-62
2023/05/06 02:38:27;;;;;;;182.83;55.77;;;;;;;;;;5051628;28;20488;-62
2023/05/06 02:40:52;;;;;;;180.93;55.30;;;;;;;;;;5052513;28;20021;-63
2023/05/06 02:43:18;;;;;;;178.37;53.90;;;;;;;;;;5051152;28;20017;-63
2023/05/06 02:45:43;;;;;;;539.83;69.10;;;;;;;;;;5053642;28;20078;-63
2023/05/06 02:48:08;;;;;;;599.80;69.87;;;;;;;;;;5055599;28;20530;-62
2023/05/06 02:50:34;;;;;;;544.47;67.30;;;;;;;;;;5054288;28;20029;-63
2023/05/06 02:53:00;;;;;;;406.47;63.57;;;;;;;;;;5053457;28;20385;-62
2023/05/06 02:55:25;;;;;;;661.57;74.40;;;;;;;;;;5055454;28;20184;-63
2023/05/06 02:57:50;;;;;;;675.23;74.30;;;;;;;;;;5054657;28;20025;-63
2023/05/06 03:00:16;;;;;;;796.67;76.47;;;;;;;;;;5054387;28;20038;-62
2023/05/06 03:02:41;;;;;;;514.90;65.87;;;;;;;;;;5055342;28;20021;-63
2023/05/06 03:05:07;;;;;;;685.97;72.23;;;;;;;;;;5054671;28;20040;-63
2023/05/06 03:07:35;;;;;;;578.60;67.47;;;;;;;;;;5052249;28;20028;-62
2023/05/06 03:10:00;;;;;;;374.00;56.50;;;;;;;;;;5051636;28;20021;-62
2023/05/06 03:12:25;;;;;;;522.10;58.80;;;;;;;;;;5054768;28;20021;-62
2023/05/06 03:14:50;;;;;;;676.40;65.57;;;;;;;;;;5054389;28;20036;-62
2023/05/06 03:17:16;;;;;;;657.63;67.57;;;;;;;;;;5054255;28;20024;-62
2023/05/06 03:19:41;;;;;;;682.50;74.10;;;;;;;;;;5055615;28;20047;-63
2023/05/06 03:22:06;;;;;;;773.87;72.57;;;;;;;;;;5052804;28;20021;-63
2023/05/06 03:24:32;;;;;;;584.93;63.93;;;;;;;;;;5055306;28;20212;-63
2023/05/06 03:26:57;;;;;;;816.37;72.93;;;;;;;;;;5053757;28;20372;-62
2023/05/06 03:29:22;;;;;;;703.23;66.27;;;;;;;;;;5052565;28;20025;-64
2023/05/06 03:31:48;;;;;;;833.73;73.97;;;;;;;;;;5053814;28;20036;-62
2023/05/06 03:34:14;;;;;;;915.93;79.73;;;;;;;;;;5053311;28;20029;-63
2023/05/06 03:36:39;;;;;;;952.20;83.97;;;;;;;;;;5053335;28;20021;-63
2023/05/06 03:39:04;;;;;;;1025.43;80.27;;;;;;;;;;5054494;28;20029;-63
2023/05/06 03:41:30;;;;;;;724.77;70.60;;;;;;;;;;5054914;28;20028;-63
2023/05/06 03:43:55;;;;;;;783.17;76.50;;;;;;;;;;5053407;28;20017;-63
2023/05/06 03:46:21;;;;;;;737.40;74.47;;;;;;;;;;5052987;28;20395;-62
2023/05/06 03:48:46;;;;;;;773.57;75.27;;;;;;;;;;5055311;28;20039;-62
2023/05/06 03:51:11;;;;;;;792.47;79.47;;;;;;;;;;5053212;28;20029;-63
2023/05/06 03:53:37;;;;;;;743.43;75.13;;;;;;;;;;5052725;28;20071;-63
2023/05/06 03:56:02;;;;;;;757.37;74.80;;;;;;;;;;5052152;28;20017;-63
2023/05/06 03:58:27;;;;;;;741.63;72.63;;;;;;;;;;5050398;28;20025;-63
2023/05/06 04:00:52;;;;;;;633.33;67.37;;;;;;;;;;5053354;28;20020;-63
2023/05/06 04:03:18;;;;;;;644.97;67.50;;;;;;;;;;5054202;28;20017;-63
2023/05/06 04:05:44;;;;;;;604.90;68.03;;;;;;;;;;5053914;28;20385;-63
2023/05/06 04:08:09;;;;;;;709.50;71.33;;;;;;;;;;5054336;28;20016;-63
2023/05/06 04:10:39;;;;;;;557.83;62.37;;;;;;;;;;5054366;28;20595;-63
2023/05/06 04:13:04;;;;;;;432.93;56.83;;;;;;;;;;5053086;28;20598;-63
2023/05/06 04:15:31;;;;;;;425.60;52.70;;;;;;;;;;5052803;28;20100;-62
2023/05/06 04:17:56;;;;;;;547.80;60.13;;;;;;;;;;5054675;28;20028;-63
2023/05/06 04:20:22;;;;;;;473.03;55.97;;;;;;;;;;5053424;28;20036;-63
2023/05/06 04:22:47;;;;;;;449.60;54.77;;;;;;;;;;5054340;28;20040;-63
2023/05/06 04:25:12;;;;;;;473.43;54.90;;;;;;;;;;5053332;28;20469;-64
2023/05/06 04:27:38;;;;;;;575.00;54.67;;;;;;;;;;5051778;28;20024;-63
2023/05/06 04:30:03;;;;;;;565.73;53.80;;;;;;;;;;5052382;28;20025;-63
2023/05/06 04:32:28;;;;;;;610.63;56.83;;;;;;;;;;5053691;28;20388;-63
2023/05/06 04:34:54;;;;;;;661.80;58.60;;;;;;;;;;5052694;28;20097;-62
2023/05/06 04:37:20;;;;;;;747.50;65.73;;;;;;;;;;5053317;28;20126;-62
2023/05/06 04:39:45;;;;;;;660.37;61.50;;;;;;;;;;5052302;28;20549;-62
2023/05/06 04:42:11;;;;;;;578.50;55.43;;;;;;;;;;5053118;28;20385;-62
2023/05/06 04:44:36;;;;;;;692.23;59.07;;;;;;;;;;5053773;28;20028;-63
2023/05/06 04:47:01;;;;;;;565.63;53.20;;;;;;;;;;5053186;28;20036;-63
2023/05/06 04:49:26;;;;;;;569.20;51.73;;;;;;;;;;5054051;28;20052;-63
2023/05/06 04:51:52;;;;;;;614.37;55.90;;;;;;;;;;5049710;28;20049;-63
2023/05/06 04:54:17;;;;;;;579.87;51.77;;;;;;;;;;5053826;28;20036;-63
2023/05/06 04:56:43;;;;;;;567.30;46.43;;;;;;;;;;5053048;28;20387;-63
2023/05/06 04:59:08;;;;;;;372.77;42.37;;;;;;;;;;5049572;28;20441;-63
2023/05/06 05:01:33;;;;;;;380.87;44.30;;;;;;;;;;5051258;28;20358;-63
2023/05/06 05:03:58;;;;;;;437.50;48.17;;;;;;;;;;5053481;28;20497;-63
2023/05/06 05:06:24;;;;;;;357.37;45.03;;;;;;;;;;5052117;28;20131;-63
2023/05/06 05:08:49;;;;;;;540.10;53.47;;;;;;;;;;5052213;28;20457;-63
2023/05/06 05:11:15;;;;;;;407.37;48.27;;;;;;;;;;5052510;28;20017;-63
2023/05/06 05:13:40;;;;;;;324.50;45.43;;;;;;;;;;5050220;28;20092;-63
2023/05/06 05:16:06;;;;;;;247.13;38.47;;;;;;;;;;5051600;28;20028;-62
2023/05/06 05:18:31;;;;;;;311.47;41.60;;;;;;;;;;5051710;28;20384;-62
2023/05/06 05:20:56;;;;;;;307.77;39.73;;;;;;;;;;5051280;28;20029;-63
2023/05/06 05:23:21;;;;;;;245.43;36.83;;;;;;;;;;5052412;28;20028;-63
2023/05/06 05:25:47;;;;;;;577.40;49.30;;;;;;;;;;5053404;28;20016;-63
2023/05/06 05:28:12;;;;;;;277.63;36.27;;;;;;;;;;5050961;28;20021;-63
2023/05/06 05:30:37;;;;;;;402.03;40.93;;;;;;;;;;5050572;28;20529;-64
2023/05/06 05:33:03;;;;;;;253.33;34.27;;;;;;;;;;5051174;28;20020;-63
2023/05/06 05:35:28;;;;;;;412.33;40.27;;;;;;;;;;5052384;28;20035;-63
2023/05/06 05:37:53;;;;;;;365.33;38.47;;;;;;;;;;5053268;28;20058;-63
2023/05/06 05:40:19;;;;;;;575.70;44.77;;;;;;;;;;5051977;28;20070;-63
2023/05/06 05:42:44;;;;;;;563.97;46.07;;;;;;;;;;5052573;28;20079;-63
2023/05/06 05:45:10;;;;;;;447.33;41.00;;;;;;;;;;5050358;28;20087;-62
2023/05/06 05:47:35;;;;;;;545.67;43.27;;;;;;;;;;5050648;28;20025;-63
2023/05/06 05:50:00;;;;;;;433.57;39.10;;;;;;;;;;5051832;28;20075;-64
2023/05/06 05:52:26;;;;;;;505.70;42.53;;;;;;;;;;5050792;28;20090;-64
2023/05/06 05:54:51;;;;;;;559.50;41.07;;;;;;;;;;5046862;28;20087;-63
2023/05/06 05:57:16;;;;;;;467.40;36.43;;;;;;;;;;5052371;28;20028;-63
2023/05/06 05:59:41;;;;;;;416.20;33.90;;;;;;;;;;5052754;28;20095;-64
2023/05/06 06:02:07;;;;;;;416.10;35.20;;;;;;;;;;5050404;28;20414;-64
2023/05/06 06:04:32;;;;;;;227.00;29.27;;;;;;;;;;5052789;28;20086;-64
2023/05/06 06:06:57;;;;;;;501.23;40.53;;;;;;;;;;5051286;28;20140;-64
2023/05/06 06:09:23;;;;;;;297.07;33.97;;;;;;;;;;5050514;28;20074;-63
2023/05/06 06:11:48;;;;;;;228.73;34.13;;;;;;;;;;5052004;28;20388;-63
2023/05/06 06:14:14;;;;;;;150.83;29.50;;;;;;;;;;5050834;28;20487;-63
2023/05/06 06:16:39;;;;;;;333.90;30.97;;;;;;;;;;5051875;28;20025;-62
2023/05/06 06:19:05;;;;;;;261.23;30.17;;;;;;;;;;5054832;28;20016;-65
2023/05/06 06:21:30;;;;;;;370.43;32.17;;;;;;;;;;5055761;28;20017;-63
2023/05/06 06:23:56;;;;;;;310.53;29.57;;;;;;;;;;5055902;28;20500;-63
2023/05/06 06:26:21;;;;;;;404.50;32.23;;;;;;;;;;5055279;28;20386;-64
2023/05/06 06:28:46;;;;;;;321.07;27.07;;;;;;;;;;5055380;28;20059;-64
2023/05/06 06:31:12;;;;;;;466.13;27.03;;;;;;;;;;5054807;28;20025;-64
2023/05/06 06:33:37;;;;;;;280.27;22.37;;;;;;;;;;5056422;28;20021;-64
2023/05/06 06:36:02;;;;;;;166.03;18.17;;;;;;;;;;5056945;28;20088;-64
2023/05/06 06:38:28;;;;;;;128.80;20.03;;;;;;;;;;5054841;28;20025;-64
2023/05/06 06:40:53;;;;;;;169.80;22.20;;;;;;;;;;5055480;28;20017;-63
2023/05/06 06:43:18;;;;;;;215.07;21.27;;;;;;;;;;5054814;28;20048;-64
2023/05/06 06:45:47;;;;;;;174.63;22.27;;;;;;;;;;5054889;28;20025;-63
2023/05/06 06:48:12;;;;;;;53.17;18.95;;;;;;;;;;5054210;28;20430;-62
2023/05/06 06:50:37;;;;;;;47.60;15.70;;;;;;;;;;5054812;28;20020;-64
2023/05/06 06:53:03;;;;;;;88.03;15.60;;;;;;;;;;5052777;28;20681;-64
2023/05/06 06:55:28;;;;;;;44.80;15.20;;;;;;;;;;5054491;28;20040;-63
2023/05/06 06:57:53;;;;;;;234.80;19.38;;;;;;;;;;5051735;28;20028;-64
2023/05/06 07:00:19;;;;;;;153.55;17.58;;;;;;;;;;5055066;28;20032;-64
2023/05/06 07:02:46;;;;;;;44.85;15.00;;;;;;;;;;5056160;28;20024;-64
2023/05/06 07:05:12;;;;;;;110.35;15.73;;;;;;;;;;5050726;28;20099;-64
2023/05/06 07:07:37;;;;;;;99.22;16.40;;;;;;;;;;5053453;28;20016;-64
2023/05/06 07:10:03;;;;;;;105.75;16.90;;;;;;;;;;5054716;28;20424;-64
2023/05/06 07:12:28;;;;;;;67.70;15.48;;;;;;;;;;5054337;28;20054;-64
2023/05/06 07:14:53;;;;;;;70.72;15.45;;;;;;;;;;5048485;28;20020;-64
2023/05/06 07:17:19;;;;;;;89.07;16.35;;;;;;;;;;5052580;28;20028;-64
2023/05/06 07:19:44;;;;;;;93.75;16.77;;;;;;;;;;5053390;28;20020;-64
2023/05/06 07:22:09;;;;;;;43.92;13.73;;;;;;;;;;5046848;28;20042;-65
2023/05/06 07:24:35;;;;;;;66.40;15.40;;;;;;;;;;5052078;28;20035;-63
2023/05/06 07:27:00;;;;;;;134.82;15.93;;;;;;;;;;5051554;28;20023;-62
2023/05/06 07:29:25;;;;;;;62.67;15.30;;;;;;;;;;5046294;28;20059;-63
2023/05/06 07:31:51;;;;;;;32.38;14.82;;;;;;;;;;5049722;28;20096;-62
2023/05/06 07:34:16;;;;;;;22.88;13.50;;;;;;;;;;5053244;28;20025;-62
2023/05/06 07:36:43;;;;;;;21.95;14.00;;;;;;;;;;5047370;28;20554;-63
2023/05/06 07:39:09;;;;;;;26.17;13.95;;;;;;;;;;5055210;28;20499;-63
2023/05/06 07:41:35;;;;;;;25.25;14.02;;;;;;;;;;5038991;28;20096;-64
2023/05/06 07:44:00;;;;;;;22.05;13.60;;;;;;;;;;5055394;28;20493;-63
2023/05/06 07:46:25;;;;;;;27.27;14.57;;;;;;;;;;5055172;28;20388;-64
2023/05/06 07:48:51;;;;;;;30.88;15.23;;;;;;;;;;5055401;28;20020;-64
2023/05/06 07:51:16;;;;;;;30.67;14.65;;;;;;;;;;5054872;28;20029;-64
2023/05/06 07:53:41;;;;;;;22.88;14.20;;;;;;;;;;5054849;28;20021;-64
2023/05/06 07:56:07;;;;;;;22.88;14.35;;;;;;;;;;5048490;28;20020;-63
2023/05/06 07:58:32;;;;;;;28.20;13.80;;;;;;;;;;5041411;28;20139;-64
2023/05/06 08:00:58;;;;;;;25.17;14.40;;;;;;;;;;5050325;28;20035;-63
2023/05/06 08:03:24;;;;;;;20.77;13.98;;;;;;;;;;5054261;28;20418;-64
2023/05/06 08:05:50;;;;;;;30.30;14.98;;;;;;;;;;5055198;28;20055;-63
2023/05/06 08:08:15;;;;;;;24.05;15.07;;;;;;;;;;5052366;28;20009;-63
2023/05/06 08:10:42;;;;;;;23.77;14.73;;;;;;;;;;5052039;28;20418;-64
2023/05/06 08:13:07;;;;;;;25.02;16.13;;;;;;;;;;5051755;28;20385;-63
2023/05/06 08:15:32;;;;;;;22.08;14.95;;;;;;;;;;5049005;28;20036;-64
2023/05/06 08:17:58;;;;;;;26.17;15.43;;;;;;;;;;5050247;28;20165;-64
2023/05/06 08:20:23;;;;;;;25.02;15.40;;;;;;;;;;5049330;28;20432;-64
2023/05/06 08:22:48;;;;;;;28.92;16.92;;;;;;;;;;5050998;28;20290;-64
2023/05/06 08:25:14;;;;;;;26.70;16.73;;;;;;;;;;5052470;28;20146;-64
2023/05/06 08:27:39;;;;;;;25.70;16.95;;;;;;;;;;5046670;28;20621;-64
2023/05/06 08:30:05;;;;;;;28.60;17.48;;;;;;;;;;5054690;28;20031;-64
2023/05/06 08:32:30;;;;;;;23.27;15.38;;;;;;;;;;5050349;28;20460;-64
2023/05/06 08:34:55;;;;;;;27.50;16.00;;;;;;;;;;5054000;28;20082;-64
2023/05/06 08:37:21;;;;;;;25.15;16.40;;;;;;;;;;5047269;28;20075;-63
2023/05/06 08:39:46;;;;;;;21.60;14.50;;;;;;;;;;5054096;28;20067;-64
2023/05/06 08:42:11;;;;;;;19.75;13.73;;;;;;;;;;5053274;28;20048;-64
2023/05/06 08:44:37;;;;;;;20.15;14.13;;;;;;;;;;5053839;28;20045;-64
2023/05/06 08:47:03;;;;;;;21.70;14.13;;;;;;;;;;5054252;28;20095;-64
2023/05/06 08:49:28;;;;;;;20.38;14.32;;;;;;;;;;5054041;28;20100;-63
2023/05/06 08:51:54;;;;;;;22.23;13.65;;;;;;;;;;5053175;28;20016;-64
2023/05/06 08:54:21;;;;;;;20.42;14.02;;;;;;;;;;5054237;28;20074;-64
2023/05/06 08:56:51;;;;;;;21.50;13.88;;;;;;;;;;5053503;28;20017;-64
2023/05/06 08:59:18;;;;;;;21.17;13.80;;;;;;;;;;5049909;28;20029;-64
2023/05/06 09:01:44;;;;;;;19.52;13.50;;;;;;;;;;5050287;28;20017;-64
2023/05/06 09:04:09;;;;;;;21.25;13.65;;;;;;;;;;5030320;28;20064;-64
2023/05/06 09:06:35;;;;;;;21.60;13.52;;;;;;;;;;5053917;28;20025;-64
2023/05/06 09:09:00;;;;;;;19.42;13.23;;;;;;;;;;5053840;28;20017;-64
2023/05/06 09:11:28;;;;;;;20.30;13.02;;;;;;;;;;5052537;28;20485;-62
2023/05/06 09:14:10;;;;;;;17.98;12.68;;;;;;;;;;5040653;28;20021;-62
2023/05/06 09:16:35;;;;;;;17.48;12.32;;;;;;;;;;5053484;28;20096;-62
2023/05/06 09:19:01;;;;;;;17.52;11.95;;;;;;;;;;5053724;28;20043;-63
2023/05/06 09:21:36;;;;;;;16.77;10.80;;;;;;;;;;5053297;28;20024;-64
2023/05/06 09:24:02;;;;;;;18.40;11.98;;;;;;;;;;5046634;28;20124;-64
2023/05/06 09:26:28;;;;;;;16.75;11.82;;;;;;;;;;5031664;28;20377;-64
2023/05/06 09:28:54;;;;;;;15.63;11.02;;;;;;;;;;5046102;28;20469;-64
2023/05/06 09:31:20;;;;;;;17.00;11.90;;;;;;;;;;5046390;28;20103;-63
2023/05/06 09:33:45;;;;;;;17.38;12.10;;;;;;;;;;5046236;28;20151;-64
2023/05/06 09:36:13;;;;;;;17.92;12.13;;;;;;;;;;5049705;28;20384;-63
2023/05/06 09:38:41;;;;;;;16.00;11.05;;;;;;;;;;5051182;28;20044;-63
2023/05/06 09:41:07;;;;;;;15.55;11.13;;;;;;;;;;5048714;28;20025;-63
2023/05/06 09:43:32;;;;;;;16.42;10.70;;;;;;;;;;5051555;28;20024;-63
2023/05/06 09:46:00;;;;;;;14.60;10.38;;;;;;;;;;5052363;28;20013;-64
2023/05/06 09:48:29;;;;;;;14.15;9.70;;;;;;;;;;5051971;28;20067;-64
2023/05/06 09:50:55;;;;;;;16.35;9.65;;;;;;;;;;5051482;28;20139;-65
2023/05/06 09:53:21;;;;;;;15.52;10.18;;;;;;;;;;5051035;28;20103;-61
2023/05/06 09:55:47;;;;;;;13.35;9.25;;;;;;;;;;5051996;28;20027;-61
2023/05/06 09:58:13;;;;;;;14.07;9.13;;;;;;;;;;5050006;28;20104;-61
2023/05/06 10:00:38;;;;;;;11.60;7.63;;;;;;;;;;5052753;28;20048;-61
2023/05/06 10:03:04;;;;;;;12.80;8.38;;;;;;;;;;5052564;28;20017;-62
2023/05/06 10:05:31;;;;;;;11.43;7.97;;;;;;;;;;5047845;28;20119;-61
2023/05/06 10:07:57;;;;;;;14.50;8.50;;;;;;;;;;5040975;28;20021;-61
2023/05/06 10:10:23;;;;;;;12.40;8.57;;;;;;;;;;5049876;28;20079;-61
2023/05/06 10:12:48;;;;;;;11.80;8.00;;;;;;;;;;5052438;28;20021;-61
2023/05/06 10:15:14;;;;;;;12.00;7.65;;;;;;;;;;5052169;28;20025;-60
2023/05/06 10:17:39;;;;;;;11.40;7.57;;;;;;;;;;5051896;28;20078;-60
2023/05/06 10:20:08;;;;;;;10.10;6.97;;;;;;;;;;5052864;28;20025;-60
2023/05/06 10:22:38;;;;;;;12.68;7.63;;;;;;;;;;5053007;28;20021;-60
2023/05/06 10:25:15;;;;;;;9.30;6.38;;;;;;;;;;5052593;28;20082;-61
2023/05/06 10:27:41;;;;;;;10.27;6.85;;;;;;;;;;5052470;28;20052;-62
2023/05/06 10:30:08;;;;;;;10.38;6.60;;;;;;;;;;5042852;28;20428;-63
2023/05/06 10:32:34;;;;;;;10.90;7.43;;;;;;;;;;5048849;28;20487;-64
2023/05/06 10:35:06;;;;;;;11.80;7.57;;;;;;;;;;5052440;28;20013;-64
2023/05/06 10:37:32;;;;;;;10.65;7.35;;;;;;;;;;5052445;28;20025;-63
2023/05/06 10:39:58;;;;;;;10.73;6.88;;;;;;;;;;5052720;28;20091;-62
2023/05/06 10:42:27;;;;;;;9.90;6.63;;;;;;;;;;5052503;28;20043;-62
2023/05/06 10:44:59;;;;;;;11.95;6.97;;;;;;;;;;5052454;28;20041;-62
2023/05/06 10:47:25;;;;;;;10.38;6.60;;;;;;;;;;5052305;28;20013;-63
2023/05/06 10:50:10;;;;;;;9.15;6.03;;;;;;;;;;5051478;28;20021;-64
2023/05/06 10:52:45;;;;;;;10.45;6.72;;;;;;;;;;5052595;28;20576;-63
2023/05/06 10:55:29;;;;;;;10.65;6.43;;;;;;;;;;5052550;28;20468;-62
2023/05/06 10:58:15;;;;;;;11.10;6.40;;;;;;;;;;5052642;28;20047;-62
2023/05/06 11:00:40;;;;;;;8.00;5.25;;;;;;;;;;5051422;28;20036;-62
2023/05/06 11:03:06;;;;;;;8.07;5.32;;;;;;;;;;5051464;28;20112;-62
2023/05/06 11:05:44;;;;;;;8.65;5.85;;;;;;;;;;5053055;28;20572;-62
2023/05/06 11:08:10;;;;;;;8.02;5.28;;;;;;;;;;5056252;28;20017;-62
2023/05/06 11:10:35;;;;;;;7.85;5.25;;;;;;;;;;5046826;28;20605;-63
2023/05/06 11:13:20;;;;;;;8.15;5.60;;;;;;;;;;5055711;28;20029;-64
2023/05/06 11:15:46;;;;;;;7.38;4.88;;;;;;;;;;5052666;28;20029;-63
2023/05/06 11:18:43;;;;;;;10.23;5.30;;;;;;;;;;5054222;28;20044;-64
2023/05/06 11:21:29;;;;;;;7.45;5.22;;;;;;;;;;5010639;28;20039;-64
2023/05/06 11:24:12;;;;;;;8.43;5.65;;;;;;;;;;5034450;28;20425;-63
2023/05/06 11:26:38;;;;;;;9.23;6.07;;;;;;;;;;5049620;28;20480;-64
2023/05/06 11:29:04;;;;;;;10.25;6.22;;;;;;;;;;5054616;28;20021;-64
2023/05/06 11:31:35;;;;;;;8.68;5.80;;;;;;;;;;5054645;28;20472;-63
2023/05/06 11:34:02;;;;;;;9.63;6.18;;;;;;;;;;5053952;28;20021;-64
2023/05/06 11:36:27;;;;;;;8.77;5.90;;;;;;;;;;5054401;28;20021;-63
2023/05/06 11:38:53;;;;;;;10.95;6.70;;;;;;;;;;5053383;28;20020;-64
2023/05/06 11:41:18;;;;;;;10.18;6.05;;;;;;;;;;5052744;28;20087;-64
2023/05/06 11:43:50;;;;;;;9.02;6.10;;;;;;;;;;5052976;28;20071;-64
2023/05/06 11:46:19;;;;;;;10.60;6.00;;;;;;;;;;5046938;28;20048;-64
2023/05/06 11:48:44;;;;;;;8.30;5.47;;;;;;;;;;5049944;28;20021;-64
2023/05/06 11:51:09;;;;;;;8.73;4.50;;;;;;;;;;5053064;28;20025;-64
2023/05/06 11:53:35;;;;;;;6.57;4.35;;;;;;;;;;5049290;28;20051;-64
2023/05/06 11:56:00;;;;;;;7.18;4.20;;;;;;;;;;5053550;28;20025;-63
2023/05/06 11:58:29;;;;;;;6.93;4.10;;;;;;;;;;5050948;28;20029;-64
2023/05/06 12:00:58;;;;;;;6.68;4.05;;;;;;;;;;5034285;28;20024;-64
2023/05/06 12:03:24;;;;;;;7.75;3.63;;;;;;;;;;5049035;28;20045;-64
2023/05/06 12:05:50;;;;;;;6.18;3.75;;;;;;;;;;5052844;28;20033;-65
2023/05/06 12:08:18;;;;;;;6.60;3.90;;;;;;;;;;5052699;28;20385;-65
2023/05/06 12:10:43;;;;;;;7.20;4.00;;;;;;;;;;5053137;28;20020;-65
2023/05/06 12:13:09;;;;;;;6.32;3.85;;;;;;;;;;5053584;28;20369;-65
2023/05/06 12:15:35;;;;;;;10.55;4.43;;;;;;;;;;5051226;28;20384;-65
2023/05/06 12:18:01;;;;;;;6.97;4.10;;;;;;;;;;5054513;28;20025;-65
2023/05/06 12:20:26;;;;;;;8.63;3.95;;;;;;;;;;5049482;28;20036;-65
2023/05/06 12:23:07;;;;;;;7.03;3.65;;;;;;;;;;5044069;28;20027;-65
2023/05/06 12:25:32;;;;;;;;;;;;;;;;;;5046312;28;20427;-65
2023/05/06 12:27:58;;;;;;;6.13;3.53;;;;;;;;;;5052458;28;19908;-65
2023/05/06 12:30:30;;;;;;;7.47;3.88;;;;;;;;;;5053365;28;20600;-65
2023/05/06 12:33:01;;;;;;;6.60;3.63;;;;;;;;;;5044777;28;20083;-65
2023/05/06 12:35:27;;;;;;;6.93;3.75;;;;;;;;;;5051912;28;20052;-65
2023/05/06 12:37:52;;;;;;;7.13;3.65;;;;;;;;;;5052471;28;20489;-67
2023/05/06 12:40:18;;;;;;;7.57;3.28;;;;;;;;;;5053810;28;20056;-67
2023/05/06 12:42:43;;;;;;;6.43;2.97;;;;;;;;;;5053390;28;20108;-66
2023/05/06 12:45:12;;;;;;;5.88;2.58;;;;;;;;;;5049696;28;20063;-68
2023/05/06 12:47:37;;;;;;;5.40;2.90;;;;;;;;;;5052183;28;20024;-67
2023/05/06 12:50:02;;;;;;;5.82;2.85;;;;;;;;;;5050921;28;20024;-66
2023/05/06 12:52:28;;;;;;;5.95;2.60;;;;;;;;;;5035969;28;20122;-66
2023/05/06 12:54:54;;;;;;;7.95;2.88;;;;;;;;;;5049416;28;20025;-67
2023/05/06 12:57:20;;;;;;;6.82;2.55;;;;;;;;;;5032747;28;20033;-67
2023/05/06 12:59:45;;;;;;;6.95;2.60;;;;;;;;;;5051152;28;20445;-67
2023/05/06 13:02:11;;;;;;;5.22;2.50;;;;;;;;;;5053036;28;20051;-67
2023/05/06 13:04:36;;;;;;;5.45;2.80;;;;;;;;;;5051390;28;20063;-67
2023/05/06 13:07:02;;;;;;;5.25;2.60;;;;;;;;;;5052336;28;20092;-67
2023/05/06 13:09:27;;;;;;;5.25;2.60;;;;;;;;;;5052192;28;20071;-68
2023/05/06 13:11:53;;;;;;;6.30;2.40;;;;;;;;;;5048889;28;20389;-68
2023/05/06 13:14:19;;;;;;;4.78;2.53;;;;;;;;;;5051305;28;20028;-68
2023/05/06 13:16:45;;;;;;;6.90;2.88;;;;;;;;;;5051478;28;20025;-68
2023/05/06 13:19:11;;;;;;;5.82;2.53;;;;;;;;;;5050430;28;20377;-67
2023/05/06 13:21:37;;;;;;;4.28;2.30;;;;;;;;;;5052049;28;20028;-68
2023/05/06 13:24:02;;;;;;;4.47;2.35;;;;;;;;;;5050918;28;20358;-67
2023/05/06 13:26:28;;;;;;;5.13;2.50;;;;;;;;;;5050730;28;20016;-67
2023/05/06 13:28:53;;;;;;;5.45;2.60;;;;;;;;;;5050677;28;20358;-67
2023/05/06 13:31:18;;;;;;;6.20;3.00;;;;;;;;;;5051602;28;20078;-67
2023/05/06 13:33:43;;;;;;;5.32;2.70;;;;;;;;;;5051793;28;20079;-67
2023/05/06 13:36:09;;;;;;;7.45;3.17;;;;;;;;;;5050738;28;20414;-67
2023/05/06 13:38:34;;;;;;;4.82;2.67;;;;;;;;;;5047494;28;20112;-67
2023/05/06 13:41:00;;;;;;;7.10;2.70;;;;;;;;;;5043979;28;20023;-66
2023/05/06 13:43:25;;;;;;;5.32;2.70;;;;;;;;;;5047536;28;20018;-68
2023/05/06 13:45:52;;;;;;;7.30;3.60;;;;;;;;;;5051459;28;20019;-67
2023/05/06 13:48:17;;;;;;;6.80;3.58;;;;;;;;;;5048774;28;20028;-68
2023/05/06 13:50:43;;;;;;;7.30;4.20;;;;;;;;;;5048614;28;20108;-68
2023/05/06 13:53:09;;;;;;;6.43;3.50;;;;;;;;;;5052123;28;20104;-69
2023/05/06 13:55:35;;;;;;;7.40;3.97;;;;;;;;;;5052047;28;20027;-68
2023/05/06 13:58:00;;;;;;;6.70;3.72;;;;;;;;;;5052209;28;20389;-68
2023/05/06 14:00:25;;;;;;;7.72;4.22;;;;;;;;;;5051315;28;20503;-69
2023/05/06 14:02:50;;;;;;;6.25;3.80;;;;;;;;;;5051260;28;20017;-68
2023/05/06 14:05:16;;;;;;;6.60;3.90;;;;;;;;;;5052031;28;20048;-68
2023/05/06 14:07:41;;;;;;;7.72;4.40;;;;;;;;;;5051650;28;20105;-69
2023/05/06 14:10:07;;;;;;;7.80;4.85;;;;;;;;;;5052617;28;20021;-68
2023/05/06 14:12:32;;;;;;;8.93;4.72;;;;;;;;;;5033099;28;20021;-68
2023/05/06 14:14:58;;;;;;;7.97;4.88;;;;;;;;;;5052098;28;20028;-68